createdAt,value
2018-02-13T00:02:00.337Z,16.47
2018-02-13T00:04:28.017Z,17.70
2018-02-13T00:06:55.864Z,14.30
2018-02-13T00:09:23.631Z,13.67
2018-02-13T00:11:51.294Z,16.93
2018-02-13T00:14:19.080Z,14.77
2018-02-13T00:16:47.372Z,15.67
2018-02-13T00:19:14.969Z,16.23
2018-02-13T00:21:42.570Z,14.63
2018-02-13T00:24:10.441Z,15.20
2018-02-13T00:26:38.060Z,16.83
2018-02-13T00:29:05.702Z,18.20
2018-02-13T00:31:34.005Z,17.03
2018-02-13T00:34:01.622Z,14.83
2018-02-13T00:36:29.238Z,18.13
2018-02-13T00:38:57.113Z,18.63
2018-02-13T00:41:24.668Z,19.57
2018-02-13T00:43:52.207Z,21.63
2018-02-13T00:46:20.479Z,17.00
2018-02-13T00:48:48.753Z,24.60
2018-02-13T00:51:17.009Z,16.70
2018-02-13T00:53:45.266Z,21.83
2018-02-13T00:56:12.771Z,21.70
2018-02-13T00:58:41.033Z,19.77
2018-02-13T01:01:08.610Z,21.87
2018-02-13T01:03:36.863Z,20.27
2018-02-13T01:06:05.974Z,19.10
2018-02-13T01:08:34.222Z,17.80
2018-02-13T01:11:01.700Z,19.40
2018-02-13T01:13:29.975Z,19.70
2018-02-13T01:15:57.559Z,18.60
2018-02-13T01:18:25.818Z,15.70
2018-02-13T01:20:54.078Z,17.63
2018-02-13T01:23:21.564Z,19.20
2018-02-13T01:25:49.814Z,19.90
2018-02-13T01:28:17.304Z,18.43
2018-02-13T01:30:44.786Z,17.80
2018-02-13T01:33:12.550Z,19.20
2018-02-13T01:35:40.046Z,19.70
2018-02-13T01:38:09.041Z,18.10
2018-02-13T01:40:36.538Z,17.23
2018-02-13T01:43:04.795Z,17.67
2018-02-13T01:45:33.048Z,19.80
2018-02-13T01:48:02.064Z,18.10
2018-02-13T01:50:29.629Z,18.00
2018-02-13T01:52:57.909Z,18.43
2018-02-13T01:55:26.179Z,18.27
2018-02-13T01:57:54.051Z,16.97
2018-02-13T02:00:22.309Z,16.43
2018-02-13T02:02:49.902Z,15.53
2018-02-13T02:05:18.269Z,18.40
2018-02-13T02:07:46.547Z,15.73
2018-02-13T02:10:14.834Z,18.10
2018-02-13T02:12:43.093Z,19.10
2018-02-13T02:15:11.375Z,14.10
2018-02-13T02:17:39.652Z,17.80
2018-02-13T02:20:07.926Z,15.70
2018-02-13T02:22:36.182Z,18.30
2018-02-13T02:25:03.754Z,16.23
2018-02-13T02:27:31.258Z,15.90
2018-02-13T02:29:58.781Z,17.13
2018-02-13T02:32:27.030Z,17.00
2018-02-13T02:34:54.525Z,16.70
2018-02-13T02:37:22.774Z,16.00
2018-02-13T02:39:50.355Z,17.57
2018-02-13T02:42:18.622Z,21.97
2018-02-13T02:44:46.261Z,16.10
2018-02-13T02:47:13.714Z,18.90
2018-02-13T02:49:41.206Z,21.33
2018-02-13T02:52:09.445Z,18.43
2018-02-13T02:54:36.936Z,19.10
2018-02-13T02:57:04.429Z,20.50
2018-02-13T02:59:31.953Z,17.53
2018-02-13T03:02:00.197Z,21.70
2018-02-13T03:04:27.694Z,20.20
2018-02-13T03:06:55.249Z,20.13
2018-02-13T03:09:23.503Z,18.53
2018-02-13T03:11:50.995Z,22.00
2018-02-13T03:14:19.244Z,21.40
2018-02-13T03:16:46.820Z,20.10
2018-02-13T03:19:15.305Z,19.30
2018-02-13T03:21:42.854Z,23.50
2018-02-13T03:24:11.106Z,22.03
2018-02-13T03:26:38.614Z,20.60
2018-02-13T03:29:06.094Z,21.20
2018-02-13T03:31:33.619Z,19.13
2018-02-13T03:34:01.878Z,19.90
2018-02-13T03:36:30.122Z,21.50
2018-02-13T03:38:57.616Z,22.23
2018-02-13T03:41:25.117Z,18.63
2018-02-13T03:43:52.673Z,18.57
2018-02-13T03:46:20.150Z,23.27
2018-02-13T03:48:47.661Z,17.67
2018-02-13T03:51:16.065Z,20.53
2018-02-13T03:53:43.541Z,17.97
2018-02-13T03:56:11.029Z,19.13
2018-02-13T03:58:38.535Z,20.67
2018-02-13T04:01:06.052Z,21.10
2018-02-13T04:03:33.535Z,23.17
2018-02-13T04:06:01.808Z,22.77
2018-02-13T04:08:30.055Z,21.50
2018-02-13T04:10:57.600Z,22.33
2018-02-13T04:13:25.083Z,19.27
2018-02-13T04:15:52.678Z,20.27
2018-02-13T04:18:21.042Z,18.57
2018-02-13T04:20:49.328Z,21.57
2018-02-13T04:23:17.578Z,20.00
2018-02-13T04:25:45.070Z,24.03
2018-02-13T04:28:13.318Z,21.87
2018-02-13T04:30:40.797Z,36.90
2018-02-13T04:33:09.062Z,29.67
2018-02-13T04:35:37.337Z,19.07
2018-02-13T04:38:05.626Z,20.27
2018-02-13T04:40:33.896Z,23.10
2018-02-13T04:43:02.147Z,22.80
2018-02-13T04:45:30.357Z,21.77
2018-02-13T04:47:58.613Z,31.83
2018-02-13T04:50:26.195Z,26.80
2018-02-13T04:52:54.447Z,26.50
2018-02-13T04:55:21.954Z,32.53
2018-02-13T04:57:49.441Z,25.47
2018-02-13T05:00:16.937Z,33.03
2018-02-13T05:02:45.315Z,28.80
2018-02-13T05:05:13.560Z,27.07
2018-02-13T05:07:41.094Z,28.43
2018-02-13T05:10:08.593Z,24.60
2018-02-13T05:12:37.578Z,27.10
2018-02-13T05:15:05.061Z,26.40
2018-02-13T05:17:33.328Z,24.87
2018-02-13T05:20:00.898Z,22.40
2018-02-13T05:22:29.146Z,22.13
2018-02-13T05:24:56.666Z,23.67
2018-02-13T05:27:24.134Z,26.23
2018-02-13T05:29:51.618Z,23.00
2018-02-13T05:32:19.120Z,24.57
2018-02-13T05:34:47.370Z,23.37
2018-02-13T05:37:14.942Z,17.63
2018-02-13T05:39:43.206Z,23.13
2018-02-13T05:42:10.684Z,23.83
2018-02-13T05:44:39.568Z,23.27
2018-02-13T05:47:07.822Z,26.10
2018-02-13T05:49:35.333Z,27.57
2018-02-13T05:52:02.857Z,27.13
2018-02-13T05:54:31.117Z,28.27
2018-02-13T05:56:59.381Z,26.47
2018-02-13T05:59:26.865Z,28.10
2018-02-13T06:01:54.416Z,35.50
2018-02-13T06:04:21.985Z,26.80
2018-02-13T06:06:50.245Z,25.77
2018-02-13T06:09:17.743Z,28.17
2018-02-13T06:11:45.235Z,28.47
2018-02-13T06:14:12.746Z,27.00
2018-02-13T06:16:41.002Z,31.80
2018-02-13T06:19:08.498Z,26.97
2018-02-13T06:21:36.038Z,31.10
2018-02-13T06:24:04.306Z,33.03
2018-02-13T06:26:31.917Z,31.87
2018-02-13T06:28:59.438Z,33.07
2018-02-13T06:31:27.695Z,33.20
2018-02-13T06:33:55.179Z,30.00
2018-02-13T06:36:23.426Z,31.53
2018-02-13T06:38:50.917Z,30.60
2018-02-13T06:41:18.397Z,31.37
2018-02-13T06:43:45.888Z,30.13
2018-02-13T06:46:13.374Z,29.57
2018-02-13T06:48:41.634Z,30.23
2018-02-13T06:51:09.113Z,32.40
2018-02-13T06:53:37.389Z,40.03
2018-02-13T06:56:06.111Z,30.30
2018-02-13T06:58:33.595Z,29.47
2018-02-13T07:01:01.197Z,35.37
2018-02-13T07:03:29.449Z,31.43
2018-02-13T07:05:56.961Z,36.37
2018-02-13T07:08:24.451Z,29.80
2018-02-13T07:10:51.939Z,30.70
2018-02-13T07:13:20.199Z,30.70
2018-02-13T07:15:47.925Z,33.20
2018-02-13T07:18:15.472Z,29.77
2018-02-13T07:20:43.010Z,30.07
2018-02-13T07:23:11.274Z,35.13
2018-02-13T07:25:39.562Z,31.80
2018-02-13T07:28:07.842Z,32.90
2018-02-13T07:30:36.098Z,26.53
2018-02-13T07:33:03.585Z,31.10
2018-02-13T07:35:31.834Z,25.40
2018-02-13T07:37:59.613Z,32.00
2018-02-13T07:40:27.858Z,30.00
2018-02-13T07:42:55.342Z,31.80
2018-02-13T07:45:23.606Z,30.03
2018-02-13T07:47:52.610Z,28.50
2018-02-13T07:50:20.437Z,25.03
2018-02-13T07:52:47.953Z,21.87
2018-02-13T07:55:16.209Z,26.17
2018-02-13T07:57:43.693Z,27.93
2018-02-13T08:00:11.187Z,27.00
2018-02-13T08:02:38.667Z,26.53
2018-02-13T08:05:06.145Z,24.00
2018-02-13T08:07:34.396Z,24.73
2018-02-13T08:10:01.889Z,25.17
2018-02-13T08:12:30.135Z,21.47
2018-02-13T08:14:57.777Z,22.57
2018-02-13T08:17:25.224Z,23.60
2018-02-13T08:19:52.710Z,21.97
2018-02-13T08:22:20.206Z,22.87
2018-02-13T08:24:48.458Z,20.90
2018-02-13T08:27:16.710Z,16.77
2018-02-13T08:29:44.206Z,24.43
2018-02-13T08:32:12.450Z,26.60
2018-02-13T08:34:39.946Z,20.40
2018-02-13T08:37:08.658Z,19.10
2018-02-13T08:39:36.142Z,18.10
2018-02-13T08:42:03.966Z,18.03
2018-02-13T08:44:32.470Z,19.30
2018-02-13T08:46:59.951Z,18.00
2018-02-13T08:49:27.429Z,22.07
2018-02-13T08:51:55.685Z,18.30
2018-02-13T08:54:23.157Z,17.97
2018-02-13T08:56:50.641Z,19.97
2018-02-13T08:59:18.897Z,19.90
2018-02-13T09:01:47.887Z,14.00
2018-02-13T09:04:15.369Z,13.30
2018-02-13T09:06:43.648Z,18.60
2018-02-13T09:09:11.215Z,19.57
2018-02-13T09:11:39.467Z,15.50
2018-02-13T09:14:06.949Z,19.07
2018-02-13T09:16:35.210Z,17.27
2018-02-13T09:19:02.689Z,18.80
2018-02-13T09:21:30.949Z,15.73
2018-02-13T09:23:59.194Z,14.80
2018-02-13T09:26:26.678Z,13.73
2018-02-13T09:28:54.166Z,15.73
2018-02-13T09:31:21.652Z,13.90
2018-02-13T09:33:49.134Z,15.33
2018-02-13T09:36:16.618Z,14.77
2018-02-13T09:38:44.858Z,11.73
2018-02-13T09:41:12.330Z,13.27
2018-02-13T09:43:40.748Z,14.90
2018-02-13T09:46:08.988Z,11.93
2018-02-13T09:48:36.567Z,13.83
2018-02-13T09:51:04.846Z,12.37
2018-02-13T09:53:33.085Z,13.47
2018-02-13T09:56:00.567Z,15.20
2018-02-13T09:58:28.062Z,14.10
2018-02-13T10:00:55.591Z,13.00
2018-02-13T10:03:23.977Z,13.57
2018-02-13T10:05:52.243Z,10.53
2018-02-13T10:08:19.723Z,22.03
2018-02-13T10:10:48.091Z,12.27
2018-02-13T10:13:16.337Z,13.20
2018-02-13T10:15:43.813Z,14.87
2018-02-13T10:18:11.307Z,13.17
2018-02-13T10:20:38.797Z,11.80
2018-02-13T10:23:06.270Z,12.53
2018-02-13T10:25:33.752Z,12.97
2018-02-13T10:28:02.018Z,12.80
2018-02-13T10:30:30.264Z,12.50
2018-02-13T10:32:57.738Z,16.77
2018-02-13T10:35:25.322Z,12.97
2018-02-13T10:37:53.570Z,15.40
2018-02-13T10:40:21.038Z,8.50
2018-02-13T10:42:49.246Z,10.17
2018-02-13T10:45:17.486Z,11.80
2018-02-13T10:47:44.963Z,9.90
2018-02-13T10:50:12.526Z,11.70
2018-02-13T10:52:40.782Z,14.63
2018-02-13T10:55:08.266Z,10.47
2018-02-13T10:57:35.765Z,13.60
2018-02-13T11:00:03.258Z,14.20
2018-02-13T11:02:30.737Z,12.10
2018-02-13T11:04:59.009Z,11.83
2018-02-13T11:07:27.263Z,10.50
2018-02-13T11:09:54.751Z,13.60
2018-02-13T11:12:23.023Z,15.60
2018-02-13T11:14:51.289Z,15.57
2018-02-13T11:17:18.773Z,15.77
2018-02-13T11:19:47.059Z,16.23
2018-02-13T11:22:15.303Z,16.40
2018-02-13T11:24:42.788Z,14.63
2018-02-13T11:27:11.151Z,15.70
2018-02-13T11:29:39.435Z,15.80
2018-02-13T11:32:07.678Z,15.80
2018-02-13T11:34:35.178Z,15.27
2018-02-13T11:37:02.718Z,15.33
2018-02-13T11:39:30.978Z,14.80
2018-02-13T11:41:58.468Z,14.57
2018-02-13T11:44:26.730Z,14.47
2018-02-13T11:46:55.004Z,15.27
2018-02-13T11:49:23.275Z,13.67
2018-02-13T11:51:50.754Z,14.60
2018-02-13T11:54:19.002Z,16.30
2018-02-13T11:56:46.490Z,14.07
2018-02-13T11:59:14.750Z,13.90
2018-02-13T12:01:42.222Z,13.30
2018-02-13T12:04:10.589Z,12.37
2018-02-13T12:06:38.837Z,12.80
2018-02-13T12:09:06.314Z,13.27
2018-02-13T12:11:33.885Z,11.97
2018-02-13T12:14:01.441Z,14.10
2018-02-13T12:16:29.686Z,12.77
2018-02-13T12:18:57.277Z,12.40
2018-02-13T12:21:25.553Z,13.20
2018-02-13T12:23:53.815Z,10.03
2018-02-13T12:26:21.305Z,10.37
2018-02-13T12:28:49.555Z,11.20
2018-02-13T12:31:17.031Z,11.33
2018-02-13T12:33:45.817Z,12.25
2018-02-13T12:36:14.067Z,12.90
2018-02-13T12:38:41.562Z,11.77
2018-02-13T12:41:09.823Z,11.47
2018-02-13T12:43:37.386Z,11.63
2018-02-13T12:46:05.642Z,11.30
2018-02-13T12:48:33.128Z,12.70
2018-02-13T12:51:01.374Z,11.50
2018-02-13T12:53:29.066Z,9.93
2018-02-13T12:55:57.410Z,9.03
2018-02-13T12:58:24.877Z,8.10
2018-02-13T13:00:52.361Z,8.03
2018-02-13T13:03:20.609Z,8.60
2018-02-13T13:05:48.089Z,8.17
2018-02-13T13:08:16.334Z,8.20
2018-02-13T13:10:43.937Z,9.53
2018-02-13T13:13:12.189Z,11.20
2018-02-13T13:15:39.665Z,9.10
2018-02-13T13:18:07.913Z,10.30
2018-02-13T13:20:35.400Z,10.17
2018-02-13T13:23:03.671Z,9.90
2018-02-13T13:25:31.941Z,9.40
2018-02-13T13:27:59.611Z,10.07
2018-02-13T13:30:27.854Z,8.90
2018-02-13T13:32:55.446Z,9.40
2018-02-13T13:35:23.684Z,9.33
2018-02-13T13:37:51.288Z,7.80
2018-02-13T13:40:19.553Z,8.60
2018-02-13T13:42:47.034Z,8.67
2018-02-13T13:45:14.583Z,10.40
2018-02-13T13:47:42.834Z,8.83
2018-02-13T13:50:10.310Z,9.83
2018-02-13T13:52:38.580Z,10.17
2018-02-13T13:55:06.847Z,9.47
2018-02-13T13:57:34.330Z,10.73
2018-02-13T14:00:02.598Z,9.80
2018-02-13T14:02:30.882Z,7.97
2018-02-13T14:04:59.140Z,6.33
2018-02-13T14:07:26.623Z,7.13
2018-02-13T14:09:54.873Z,7.60
2018-02-13T14:12:22.349Z,6.70
2018-02-13T14:14:50.598Z,6.10
2018-02-13T14:17:18.077Z,7.37
2018-02-13T14:19:46.330Z,8.60
2018-02-13T14:22:13.809Z,9.53
2018-02-13T14:24:42.069Z,6.60
2018-02-13T14:27:09.541Z,8.07
2018-02-13T14:29:37.789Z,7.37
2018-02-13T14:32:05.279Z,7.37
2018-02-13T14:34:33.559Z,8.13
2018-02-13T14:37:01.803Z,10.13
2018-02-13T14:39:29.294Z,7.30
2018-02-13T14:41:57.553Z,7.13
2018-02-13T14:44:25.192Z,6.90
2018-02-13T14:46:52.684Z,7.03
2018-02-13T14:49:20.940Z,7.30
2018-02-13T14:51:48.414Z,7.53
2018-02-13T14:54:15.906Z,8.00
2018-02-13T14:56:43.440Z,9.90
2018-02-13T14:59:10.918Z,9.37
2018-02-13T15:01:38.412Z,8.93
2018-02-13T15:04:05.912Z,8.47
2018-02-13T15:06:34.161Z,8.83
2018-02-13T15:09:01.757Z,10.37
2018-02-13T15:11:30.010Z,11.80
2018-02-13T15:13:57.501Z,10.90
2018-02-13T15:16:25.007Z,12.10
2018-02-13T15:18:52.488Z,11.10
2018-02-13T15:21:19.961Z,10.43
2018-02-13T15:23:48.235Z,8.40
2018-02-13T15:26:16.479Z,10.50
2018-02-13T15:28:43.963Z,8.90
2018-02-13T15:31:12.254Z,13.43
2018-02-13T15:33:40.505Z,12.67
2018-02-13T15:36:07.991Z,10.10
2018-02-13T15:38:36.251Z,9.83
2018-02-13T15:41:04.543Z,10.23
2018-02-13T15:43:32.788Z,9.97
2018-02-13T15:46:00.378Z,10.07
2018-02-13T15:48:28.654Z,10.90
2018-02-13T15:50:56.969Z,9.73
2018-02-13T15:53:24.458Z,21.70
2018-02-13T15:55:51.942Z,9.13
2018-02-13T15:58:20.213Z,9.90
2018-02-13T16:00:48.154Z,11.10
2018-02-13T16:03:15.625Z,10.67
2018-02-13T16:05:43.201Z,10.10
2018-02-13T16:08:11.482Z,9.90
2018-02-13T16:10:39.718Z,9.13
2018-02-13T16:13:07.219Z,8.33
2018-02-13T16:15:35.589Z,7.53
2018-02-13T16:18:03.053Z,7.67
2018-02-13T16:20:31.291Z,7.87
2018-02-13T16:22:58.771Z,8.53
2018-02-13T16:25:26.243Z,8.67
2018-02-13T16:27:54.480Z,8.20
2018-02-13T16:30:21.971Z,16.13
2018-02-13T16:32:49.445Z,10.50
2018-02-13T16:35:17.691Z,13.20
2018-02-13T16:37:45.177Z,13.33
2018-02-13T16:40:12.734Z,12.80
2018-02-13T16:42:40.983Z,19.63
2018-02-13T16:45:08.509Z,14.50
2018-02-13T16:47:36.270Z,16.00
2018-02-13T16:50:03.794Z,21.57
2018-02-13T16:52:32.190Z,17.70
2018-02-13T16:54:59.694Z,12.90
2018-02-13T16:57:27.178Z,11.27
2018-02-13T16:59:54.671Z,20.33
2018-02-13T17:02:22.146Z,21.03
2018-02-13T17:04:49.622Z,18.80
2018-02-13T17:07:17.125Z,20.93
2018-02-13T17:09:45.384Z,27.37
2018-02-13T17:12:12.858Z,22.50
2018-02-13T17:14:41.113Z,19.60
2018-02-13T17:17:08.592Z,14.37
2018-02-13T17:19:36.858Z,21.13
2018-02-13T17:22:05.151Z,23.13
2018-02-13T17:24:33.427Z,27.17
2018-02-13T17:27:01.714Z,19.60
2018-02-13T17:29:29.173Z,16.90
2018-02-13T17:31:56.649Z,26.40
2018-02-13T17:34:24.161Z,26.43
2018-02-13T17:36:52.440Z,21.07
2018-02-13T17:39:19.928Z,16.83
2018-02-13T17:41:47.427Z,15.80
2018-02-13T17:44:14.919Z,20.80
2018-02-13T17:46:43.174Z,17.07
2018-02-13T17:49:10.715Z,16.70
2018-02-13T17:51:38.964Z,19.23
2018-02-13T17:54:06.462Z,23.83
2018-02-13T17:56:33.950Z,26.80
2018-02-13T17:59:02.208Z,20.40
2018-02-13T18:01:29.690Z,23.50
2018-02-13T18:03:57.952Z,29.83
2018-02-13T18:06:26.951Z,24.23
2018-02-13T18:08:55.208Z,22.57
2018-02-13T18:11:22.749Z,23.23
2018-02-13T18:13:50.253Z,23.03
2018-02-13T18:16:19.892Z,19.20
2018-02-13T18:18:48.356Z,22.70
2018-02-13T18:21:15.992Z,23.30
2018-02-13T18:23:44.295Z,25.33
2018-02-13T18:26:11.829Z,22.50
2018-02-13T18:28:40.115Z,21.70
2018-02-13T18:31:08.459Z,50.60
2018-02-13T18:33:35.987Z,32.13
2018-02-13T18:36:03.631Z,25.33
2018-02-13T18:38:31.133Z,23.07
2018-02-13T18:40:58.619Z,26.43
2018-02-13T18:43:27.860Z,20.40
2018-02-13T18:45:55.529Z,19.43
2018-02-13T18:48:23.035Z,33.83
2018-02-13T18:50:52.042Z,25.63
2018-02-13T18:53:19.553Z,20.20
2018-02-13T18:55:47.148Z,20.67
2018-02-13T18:58:15.502Z,21.00
2018-02-13T19:00:43.015Z,19.73
2018-02-13T19:03:11.259Z,19.40
2018-02-13T19:05:39.602Z,19.30
2018-02-13T19:08:07.137Z,20.00
2018-02-13T19:10:35.456Z,23.17
2018-02-13T19:13:03.898Z,23.07
2018-02-13T19:15:31.611Z,23.30
2018-02-13T19:18:00.487Z,22.70
2018-02-13T19:20:28.173Z,39.60
2018-02-13T19:22:55.889Z,23.80
2018-02-13T19:25:23.547Z,23.67
2018-02-13T19:27:51.351Z,21.50
2018-02-13T19:30:19.635Z,22.37
2018-02-13T19:32:47.149Z,24.77
2018-02-13T19:35:14.739Z,22.40
2018-02-13T19:37:43.845Z,20.17
2018-02-13T19:40:11.448Z,19.50
2018-02-13T19:42:39.025Z,71.70
2018-02-13T19:45:06.689Z,40.80
2018-02-13T19:47:34.242Z,25.73
2018-02-13T19:50:01.909Z,25.60
2018-02-13T19:52:29.406Z,26.27
2018-02-13T19:54:57.014Z,24.97
2018-02-13T19:57:24.518Z,21.57
2018-02-13T19:59:52.010Z,22.53
2018-02-13T20:02:20.528Z,26.80
2018-02-13T20:04:48.080Z,26.23
2018-02-13T20:07:15.594Z,25.90
2018-02-13T20:09:43.099Z,26.47
2018-02-13T20:12:10.940Z,30.43
2018-02-13T20:14:39.214Z,32.57
2018-02-13T20:17:07.472Z,33.20
2018-02-13T20:19:34.984Z,36.57
2018-02-13T20:22:02.490Z,33.37
2018-02-13T20:24:30.778Z,29.90
2018-02-13T20:26:59.047Z,28.23
2018-02-13T20:29:26.653Z,34.00
2018-02-13T20:31:54.151Z,31.77
2018-02-13T20:34:21.689Z,31.63
2018-02-13T20:36:49.925Z,27.63
2018-02-13T20:39:18.327Z,32.30
2018-02-13T20:41:45.843Z,31.77
2018-02-13T20:44:13.339Z,30.37
2018-02-13T20:46:40.879Z,31.37
2018-02-13T20:49:08.399Z,32.53
2018-02-13T20:51:35.921Z,34.70
2018-02-13T20:54:03.422Z,37.97
2018-02-13T20:56:31.185Z,37.70
2018-02-13T20:58:58.933Z,39.00
2018-02-13T21:01:26.677Z,41.20
2018-02-13T21:03:54.557Z,39.60
2018-02-13T21:06:22.306Z,44.73
2018-02-13T21:08:50.104Z,159.87
2018-02-13T21:11:17.861Z,43.07
2018-02-13T21:13:46.566Z,36.72
2018-02-13T21:16:14.902Z,33.53
2018-02-13T21:18:42.560Z,34.20
2018-02-13T21:21:10.332Z,35.77
2018-02-13T21:23:37.993Z,36.33
2018-02-13T21:26:05.634Z,38.33
2018-02-13T21:28:33.196Z,35.63
2018-02-13T21:31:00.986Z,32.30
2018-02-13T21:33:29.567Z,34.00
2018-02-13T21:35:57.054Z,28.13
2018-02-13T21:38:24.549Z,26.70
2018-02-13T21:40:52.815Z,25.47
2018-02-13T21:43:21.067Z,28.77
2018-02-13T21:45:48.551Z,24.47
2018-02-13T21:48:16.831Z,28.10
2018-02-13T21:50:45.111Z,26.40
2018-02-13T21:53:13.391Z,21.73
2018-02-13T21:55:41.659Z,20.20
2018-02-13T21:58:09.966Z,21.83
2018-02-13T22:00:37.460Z,27.73
2018-02-13T22:03:04.973Z,29.67
2018-02-13T22:05:32.455Z,23.43
2018-02-13T22:07:59.967Z,20.37
2018-02-13T22:10:28.241Z,19.00
2018-02-13T22:12:56.486Z,19.50
2018-02-13T22:15:24.114Z,17.37
2018-02-13T22:17:51.642Z,17.23
2018-02-13T22:20:19.899Z,16.27
2018-02-13T22:22:47.384Z,21.00
2018-02-13T22:25:15.660Z,20.00
2018-02-13T22:27:43.910Z,26.00
2018-02-13T22:30:11.438Z,16.10
2018-02-13T22:32:38.938Z,17.93
2018-02-13T22:35:06.515Z,21.10
2018-02-13T22:37:34.015Z,16.70
2018-02-13T22:40:01.532Z,19.20
2018-02-13T22:42:29.781Z,20.03
2018-02-13T22:44:57.267Z,22.17
2018-02-13T22:47:25.645Z,18.33
2018-02-13T22:49:53.891Z,17.37
2018-02-13T22:52:21.377Z,19.60
2018-02-13T22:54:48.903Z,20.33
2018-02-13T22:57:16.504Z,23.23
2018-02-13T22:59:44.750Z,14.60
2018-02-13T23:02:12.345Z,16.10
2018-02-13T23:04:39.838Z,15.00
2018-02-13T23:07:07.326Z,15.40
2018-02-13T23:09:34.824Z,14.47
2018-02-13T23:12:02.366Z,14.50
2018-02-13T23:14:30.614Z,14.87
2018-02-13T23:16:58.206Z,13.13
2018-02-13T23:19:26.454Z,13.40
2018-02-13T23:21:53.938Z,12.63
2018-02-13T23:24:22.193Z,15.60
2018-02-13T23:26:50.452Z,13.40
2018-02-13T23:29:17.927Z,14.37
2018-02-13T23:31:45.421Z,14.10
2018-02-13T23:34:12.909Z,13.83
2018-02-13T23:36:40.421Z,14.90
2018-02-13T23:39:08.695Z,14.53
2018-02-13T23:41:36.941Z,12.90
2018-02-13T23:44:04.434Z,13.03
2018-02-13T23:46:32.705Z,10.70
2018-02-13T23:49:00.965Z,14.00
2018-02-13T23:51:28.547Z,14.17
2018-02-13T23:53:56.815Z,13.73
2018-02-13T23:56:25.097Z,14.13
2018-02-13T23:58:53.359Z,13.00
